sensor_id;sensor_type;location;lat;lon;timestamp;P1;durP1;ratioP1;P2;durP2;ratioP2
4074;SDS011;2052;53.522;9.806;2023-04-15T00:00:16;7.73;;;5.20;;
4074;SDS011;2052;53.522;9.806;2023-04-15T00:02:43;6.97;;;5.50;;
4074;SDS011;2052;53.522;9.806;2023-04-15T00:05:09;8.50;;;6.07;;
4074;SDS011;2052;53.522;9.806;2023-04-15T00:07:36;9.60;;;6.00;;
4074;SDS011;2052;53.522;9.806;2023-04-15T00:10:04;9.10;;;5.77;;
4074;SDS011;2052;53.522;9.806;2023-04-15T00:12:32;9.73;;;6.13;;
4074;SDS011;2052;53.522;9.806;2023-04-15T00:14:58;10.90;;;6.10;;
4074;SDS011;2052;53.522;9.806;2023-04-15T00:17:25;11.30;;;5.70;;
4074;SDS011;2052;53.522;9.806;2023-04-15T00:19:52;7.43;;;5.23;;
4074;SDS011;2052;53.522;9.806;2023-04-15T00:22:18;9.20;;;5.90;;
4074;SDS011;2052;53.522;9.806;2023-04-15T00:24:45;10.53;;;6.40;;
4074;SDS011;2052;53.522;9.806;2023-04-15T00:27:13;9.87;;;6.73;;
4074;SDS011;2052;53.522;9.806;2023-04-15T00:29:40;9.27;;;6.33;;
4074;SDS011;2052;53.522;9.806;2023-04-15T00:32:07;12.83;;;7.17;;
4074;SDS011;2052;53.522;9.806;2023-04-15T00:34:34;11.27;;;7.33;;
4074;SDS011;2052;53.522;9.806;2023-04-15T00:37:00;9.17;;;6.23;;
4074;SDS011;2052;53.522;9.806;2023-04-15T00:39:27;11.60;;;7.30;;
4074;SDS011;2052;53.522;9.806;2023-04-15T00:41:54;12.20;;;6.10;;
4074;SDS011;2052;53.522;9.806;2023-04-15T00:44:22;9.10;;;6.60;;
4074;SDS011;2052;53.522;9.806;2023-04-15T00:46:49;9.07;;;5.67;;
4074;SDS011;2052;53.522;9.806;2023-04-15T00:49:17;10.03;;;6.37;;
4074;SDS011;2052;53.522;9.806;2023-04-15T00:51:43;12.60;;;7.43;;
4074;SDS011;2052;53.522;9.806;2023-04-15T00:54:10;11.00;;;7.60;;
4074;SDS011;2052;53.522;9.806;2023-04-15T00:56:37;11.97;;;7.40;;
4074;SDS011;2052;53.522;9.806;2023-04-15T00:59:04;10.50;;;6.40;;
4074;SDS011;2052;53.522;9.806;2023-04-15T01:01:33;9.80;;;6.50;;
4074;SDS011;2052;53.522;9.806;2023-04-15T01:04:01;11.67;;;7.20;;
4074;SDS011;2052;53.522;9.806;2023-04-15T01:06:28;12.17;;;7.90;;
4074;SDS011;2052;53.522;9.806;2023-04-15T01:08:55;14.23;;;8.33;;
4074;SDS011;2052;53.522;9.806;2023-04-15T01:11:22;16.17;;;9.23;;
4074;SDS011;2052;53.522;9.806;2023-04-15T01:13:49;13.00;;;8.30;;
4074;SDS011;2052;53.522;9.806;2023-04-15T01:16:17;15.57;;;9.63;;
4074;SDS011;2052;53.522;9.806;2023-04-15T01:18:45;13.20;;;7.60;;
4074;SDS011;2052;53.522;9.806;2023-04-15T01:21:12;12.40;;;8.37;;
4074;SDS011;2052;53.522;9.806;2023-04-15T01:23:38;19.80;;;9.80;;
4074;SDS011;2052;53.522;9.806;2023-04-15T01:26:07;15.60;;;10.63;;
4074;SDS011;2052;53.522;9.806;2023-04-15T01:28:34;16.97;;;9.57;;
4074;SDS011;2052;53.522;9.806;2023-04-15T01:31:04;16.63;;;10.10;;
4074;SDS011;2052;53.522;9.806;2023-04-15T01:33:32;15.53;;;9.10;;
4074;SDS011;2052;53.522;9.806;2023-04-15T01:35:59;18.47;;;9.80;;
4074;SDS011;2052;53.522;9.806;2023-04-15T01:38:25;20.70;;;11.00;;
4074;SDS011;2052;53.522;9.806;2023-04-15T01:40:52;17.13;;;9.77;;
4074;SDS011;2052;53.522;9.806;2023-04-15T01:43:20;15.90;;;10.03;;
4074;SDS011;2052;53.522;9.806;2023-04-15T01:45:47;16.70;;;10.20;;
4074;SDS011;2052;53.522;9.806;2023-04-15T01:48:13;18.47;;;10.60;;
4074;SDS011;2052;53.522;9.806;2023-04-15T01:50:40;18.20;;;10.70;;
4074;SDS011;2052;53.522;9.806;2023-04-15T01:53:07;17.73;;;10.10;;
4074;SDS011;2052;53.522;9.806;2023-04-15T01:55:35;15.90;;;9.47;;
4074;SDS011;2052;53.522;9.806;2023-04-15T01:58:01;16.60;;;9.23;;
4074;SDS011;2052;53.522;9.806;2023-04-15T02:00:29;17.90;;;10.60;;
4074;SDS011;2052;53.522;9.806;2023-04-15T02:02:56;17.93;;;10.30;;
4074;SDS011;2052;53.522;9.806;2023-04-15T02:05:23;18.60;;;9.83;;
4074;SDS011;2052;53.522;9.806;2023-04-15T02:07:50;18.40;;;11.23;;
4074;SDS011;2052;53.522;9.806;2023-04-15T02:10:17;17.47;;;9.67;;
4074;SDS011;2052;53.522;9.806;2023-04-15T02:12:44;14.80;;;9.43;;
4074;SDS011;2052;53.522;9.806;2023-04-15T02:15:11;19.80;;;10.50;;
4074;SDS011;2052;53.522;9.806;2023-04-15T02:17:38;16.63;;;10.20;;
4074;SDS011;2052;53.522;9.806;2023-04-15T02:20:10;17.97;;;9.40;;
4074;SDS011;2052;53.522;9.806;2023-04-15T02:22:37;13.57;;;8.50;;
4074;SDS011;2052;53.522;9.806;2023-04-15T02:25:03;14.13;;;8.60;;
4074;SDS011;2052;53.522;9.806;2023-04-15T02:27:31;13.13;;;8.10;;
4074;SDS011;2052;53.522;9.806;2023-04-15T02:29:57;11.77;;;8.20;;
4074;SDS011;2052;53.522;9.806;2023-04-15T02:32:24;16.57;;;9.57;;
4074;SDS011;2052;53.522;9.806;2023-04-15T02:34:52;14.33;;;8.27;;
4074;SDS011;2052;53.522;9.806;2023-04-15T02:37:18;16.43;;;10.00;;
4074;SDS011;2052;53.522;9.806;2023-04-15T02:39:45;16.13;;;9.00;;
4074;SDS011;2052;53.522;9.806;2023-04-15T02:42:12;17.40;;;10.10;;
4074;SDS011;2052;53.522;9.806;2023-04-15T02:44:38;14.50;;;9.57;;
4074;SDS011;2052;53.522;9.806;2023-04-15T02:47:05;16.10;;;9.10;;
4074;SDS011;2052;53.522;9.806;2023-04-15T02:49:31;15.63;;;9.27;;
4074;SDS011;2052;53.522;9.806;2023-04-15T02:51:59;15.10;;;8.00;;
4074;SDS011;2052;53.522;9.806;2023-04-15T02:54:26;14.40;;;8.40;;
4074;SDS011;2052;53.522;9.806;2023-04-15T02:56:53;14.97;;;8.57;;
4074;SDS011;2052;53.522;9.806;2023-04-15T02:59:20;18.40;;;9.90;;
4074;SDS011;2052;53.522;9.806;2023-04-15T03:01:47;12.73;;;7.73;;
4074;SDS011;2052;53.522;9.806;2023-04-15T03:04:14;15.83;;;8.90;;
4074;SDS011;2052;53.522;9.806;2023-04-15T03:06:40;16.30;;;9.63;;
4074;SDS011;2052;53.522;9.806;2023-04-15T03:09:08;18.00;;;10.10;;
4074;SDS011;2052;53.522;9.806;2023-04-15T03:11:35;14.50;;;9.07;;
4074;SDS011;2052;53.522;9.806;2023-04-15T03:14:04;14.53;;;8.77;;
4074;SDS011;2052;53.522;9.806;2023-04-15T03:16:31;16.60;;;9.37;;
4074;SDS011;2052;53.522;9.806;2023-04-15T03:18:57;20.97;;;10.70;;
4074;SDS011;2052;53.522;9.806;2023-04-15T03:21:24;19.30;;;9.87;;
4074;SDS011;2052;53.522;9.806;2023-04-15T03:23:51;14.83;;;9.00;;
4074;SDS011;2052;53.522;9.806;2023-04-15T03:26:26;16.60;;;10.00;;
4074;SDS011;2052;53.522;9.806;2023-04-15T03:28:53;18.97;;;10.27;;
4074;SDS011;2052;53.522;9.806;2023-04-15T03:31:20;18.00;;;10.77;;
4074;SDS011;2052;53.522;9.806;2023-04-15T03:33:46;23.10;;;10.30;;
4074;SDS011;2052;53.522;9.806;2023-04-15T03:36:13;17.87;;;10.30;;
4074;SDS011;2052;53.522;9.806;2023-04-15T03:38:40;21.67;;;11.00;;
4074;SDS011;2052;53.522;9.806;2023-04-15T03:41:07;21.33;;;12.23;;
4074;SDS011;2052;53.522;9.806;2023-04-15T03:43:35;20.03;;;11.27;;
4074;SDS011;2052;53.522;9.806;2023-04-15T03:46:02;19.13;;;10.63;;
4074;SDS011;2052;53.522;9.806;2023-04-15T03:48:29;20.00;;;10.40;;
4074;SDS011;2052;53.522;9.806;2023-04-15T03:50:55;21.00;;;11.17;;
4074;SDS011;2052;53.522;9.806;2023-04-15T03:53:22;18.50;;;10.90;;
4074;SDS011;2052;53.522;9.806;2023-04-15T03:55:48;20.73;;;12.23;;
4074;SDS011;2052;53.522;9.806;2023-04-15T03:58:15;22.63;;;12.20;;
4074;SDS011;2052;53.522;9.806;2023-04-15T04:00:44;21.37;;;11.97;;
4074;SDS011;2052;53.522;9.806;2023-04-15T04:03:10;23.60;;;11.90;;
4074;SDS011;2052;53.522;9.806;2023-04-15T04:05:37;21.40;;;12.10;;
4074;SDS011;2052;53.522;9.806;2023-04-15T04:08:05;26.60;;;13.00;;
4074;SDS011;2052;53.522;9.806;2023-04-15T04:10:32;20.43;;;11.70;;
4074;SDS011;2052;53.522;9.806;2023-04-15T04:12:58;25.10;;;12.30;;
4074;SDS011;2052;53.522;9.806;2023-04-15T04:15:25;26.53;;;12.80;;
4074;SDS011;2052;53.522;9.806;2023-04-15T04:17:53;22.47;;;12.63;;
4074;SDS011;2052;53.522;9.806;2023-04-15T04:20:20;24.57;;;12.90;;
4074;SDS011;2052;53.522;9.806;2023-04-15T04:22:46;27.60;;;12.90;;
4074;SDS011;2052;53.522;9.806;2023-04-15T04:25:13;23.63;;;11.37;;
4074;SDS011;2052;53.522;9.806;2023-04-15T04:27:40;23.40;;;13.10;;
4074;SDS011;2052;53.522;9.806;2023-04-15T04:30:07;25.43;;;13.30;;
4074;SDS011;2052;53.522;9.806;2023-04-15T04:32:34;25.70;;;12.83;;
4074;SDS011;2052;53.522;9.806;2023-04-15T04:35:02;23.80;;;12.50;;
4074;SDS011;2052;53.522;9.806;2023-04-15T04:37:29;26.47;;;13.87;;
4074;SDS011;2052;53.522;9.806;2023-04-15T04:39:55;24.70;;;12.33;;
4074;SDS011;2052;53.522;9.806;2023-04-15T04:42:22;22.50;;;12.40;;
4074;SDS011;2052;53.522;9.806;2023-04-15T04:44:48;24.57;;;12.13;;
4074;SDS011;2052;53.522;9.806;2023-04-15T04:47:15;30.60;;;14.67;;
4074;SDS011;2052;53.522;9.806;2023-04-15T04:49:42;23.43;;;13.00;;
4074;SDS011;2052;53.522;9.806;2023-04-15T04:52:10;22.43;;;11.57;;
4074;SDS011;2052;53.522;9.806;2023-04-15T04:54:36;23.77;;;12.33;;
4074;SDS011;2052;53.522;9.806;2023-04-15T04:57:03;24.37;;;13.50;;
4074;SDS011;2052;53.522;9.806;2023-04-15T04:59:31;25.60;;;14.47;;
4074;SDS011;2052;53.522;9.806;2023-04-15T05:01:58;25.67;;;13.47;;
4074;SDS011;2052;53.522;9.806;2023-04-15T05:04:25;31.73;;;16.90;;
4074;SDS011;2052;53.522;9.806;2023-04-15T05:06:51;32.00;;;14.83;;
4074;SDS011;2052;53.522;9.806;2023-04-15T05:09:19;35.13;;;16.17;;
4074;SDS011;2052;53.522;9.806;2023-04-15T05:11:46;28.80;;;15.30;;
4074;SDS011;2052;53.522;9.806;2023-04-15T05:14:12;36.43;;;18.73;;
4074;SDS011;2052;53.522;9.806;2023-04-15T05:16:39;32.90;;;15.90;;
4074;SDS011;2052;53.522;9.806;2023-04-15T05:19:05;44.13;;;18.40;;
4074;SDS011;2052;53.522;9.806;2023-04-15T05:21:32;37.37;;;17.30;;
4074;SDS011;2052;53.522;9.806;2023-04-15T05:23:58;37.67;;;17.50;;
4074;SDS011;2052;53.522;9.806;2023-04-15T05:26:26;44.10;;;19.73;;
4074;SDS011;2052;53.522;9.806;2023-04-15T05:28:53;38.97;;;17.70;;
4074;SDS011;2052;53.522;9.806;2023-04-15T05:31:20;33.80;;;16.20;;
4074;SDS011;2052;53.522;9.806;2023-04-15T05:33:46;36.33;;;18.23;;
4074;SDS011;2052;53.522;9.806;2023-04-15T05:36:13;44.07;;;19.23;;
4074;SDS011;2052;53.522;9.806;2023-04-15T05:38:39;44.43;;;20.17;;
4074;SDS011;2052;53.522;9.806;2023-04-15T05:41:06;40.50;;;19.77;;
4074;SDS011;2052;53.522;9.806;2023-04-15T05:43:34;44.07;;;21.43;;
4074;SDS011;2052;53.522;9.806;2023-04-15T05:46:00;41.33;;;19.53;;
4074;SDS011;2052;53.522;9.806;2023-04-15T05:48:27;36.67;;;18.40;;
4074;SDS011;2052;53.522;9.806;2023-04-15T05:50:53;44.37;;;19.30;;
4074;SDS011;2052;53.522;9.806;2023-04-15T05:53:20;44.77;;;19.47;;
4074;SDS011;2052;53.522;9.806;2023-04-15T05:55:47;49.03;;;22.60;;
4074;SDS011;2052;53.522;9.806;2023-04-15T05:58:13;39.27;;;19.43;;
4074;SDS011;2052;53.522;9.806;2023-04-15T06:00:41;45.90;;;20.47;;
4074;SDS011;2052;53.522;9.806;2023-04-15T06:03:08;46.90;;;21.73;;
4074;SDS011;2052;53.522;9.806;2023-04-15T06:05:35;44.50;;;19.40;;
4074;SDS011;2052;53.522;9.806;2023-04-15T06:08:02;42.53;;;21.03;;
4074;SDS011;2052;53.522;9.806;2023-04-15T06:10:29;46.03;;;23.13;;
4074;SDS011;2052;53.522;9.806;2023-04-15T06:13:00;48.57;;;22.77;;
4074;SDS011;2052;53.522;9.806;2023-04-15T06:15:26;49.20;;;21.63;;
4074;SDS011;2052;53.522;9.806;2023-04-15T06:17:54;51.60;;;21.93;;
4074;SDS011;2052;53.522;9.806;2023-04-15T06:20:21;49.00;;;23.10;;
4074;SDS011;2052;53.522;9.806;2023-04-15T06:22:48;51.53;;;22.47;;
4074;SDS011;2052;53.522;9.806;2023-04-15T06:25:14;53.30;;;23.40;;
4074;SDS011;2052;53.522;9.806;2023-04-15T06:27:41;53.93;;;22.67;;
4074;SDS011;2052;53.522;9.806;2023-04-15T06:30:08;52.87;;;23.70;;
4074;SDS011;2052;53.522;9.806;2023-04-15T06:32:35;47.43;;;22.60;;
4074;SDS011;2052;53.522;9.806;2023-04-15T06:35:04;56.03;;;24.13;;
4074;SDS011;2052;53.522;9.806;2023-04-15T06:37:31;59.80;;;25.30;;
4074;SDS011;2052;53.522;9.806;2023-04-15T06:39:57;57.90;;;25.90;;
4074;SDS011;2052;53.522;9.806;2023-04-15T06:42:24;64.30;;;25.77;;
4074;SDS011;2052;53.522;9.806;2023-04-15T06:44:50;65.83;;;27.77;;
4074;SDS011;2052;53.522;9.806;2023-04-15T06:47:17;62.03;;;26.67;;
4074;SDS011;2052;53.522;9.806;2023-04-15T06:49:43;60.13;;;29.33;;
4074;SDS011;2052;53.522;9.806;2023-04-15T06:52:11;64.73;;;28.40;;
4074;SDS011;2052;53.522;9.806;2023-04-15T06:54:38;74.57;;;29.20;;
4074;SDS011;2052;53.522;9.806;2023-04-15T06:57:05;67.10;;;29.50;;
4074;SDS011;2052;53.522;9.806;2023-04-15T06:59:31;65.43;;;30.00;;
4074;SDS011;2052;53.522;9.806;2023-04-15T07:02:00;71.33;;;30.80;;
4074;SDS011;2052;53.522;9.806;2023-04-15T07:04:27;75.07;;;31.30;;
4074;SDS011;2052;53.522;9.806;2023-04-15T07:06:54;69.53;;;32.80;;
4074;SDS011;2052;53.522;9.806;2023-04-15T07:09:23;66.93;;;30.27;;
4074;SDS011;2052;53.522;9.806;2023-04-15T07:11:49;75.67;;;32.87;;
4074;SDS011;2052;53.522;9.806;2023-04-15T07:14:16;76.30;;;32.33;;
4074;SDS011;2052;53.522;9.806;2023-04-15T07:16:43;77.60;;;33.30;;
4074;SDS011;2052;53.522;9.806;2023-04-15T07:19:10;83.70;;;35.17;;
4074;SDS011;2052;53.522;9.806;2023-04-15T07:21:36;83.23;;;33.47;;
4074;SDS011;2052;53.522;9.806;2023-04-15T07:24:03;76.07;;;32.33;;
4074;SDS011;2052;53.522;9.806;2023-04-15T07:26:32;79.23;;;33.97;;
4074;SDS011;2052;53.522;9.806;2023-04-15T07:28:58;74.53;;;31.63;;
4074;SDS011;2052;53.522;9.806;2023-04-15T07:31:26;87.17;;;34.90;;
4074;SDS011;2052;53.522;9.806;2023-04-15T07:33:53;79.00;;;33.07;;
4074;SDS011;2052;53.522;9.806;2023-04-15T07:36:19;75.40;;;34.10;;
4074;SDS011;2052;53.522;9.806;2023-04-15T07:38:46;82.63;;;34.60;;
4074;SDS011;2052;53.522;9.806;2023-04-15T07:41:14;94.47;;;35.13;;
4074;SDS011;2052;53.522;9.806;2023-04-15T07:43:42;77.33;;;34.90;;
4074;SDS011;2052;53.522;9.806;2023-04-15T07:46:09;76.07;;;36.13;;
4074;SDS011;2052;53.522;9.806;2023-04-15T07:48:36;78.63;;;36.27;;
4074;SDS011;2052;53.522;9.806;2023-04-15T07:51:02;83.37;;;35.33;;
4074;SDS011;2052;53.522;9.806;2023-04-15T07:53:29;79.37;;;35.00;;
4074;SDS011;2052;53.522;9.806;2023-04-15T07:55:57;83.90;;;36.23;;
4074;SDS011;2052;53.522;9.806;2023-04-15T07:58:23;76.70;;;33.40;;
4074;SDS011;2052;53.522;9.806;2023-04-15T08:00:51;74.13;;;33.73;;
4074;SDS011;2052;53.522;9.806;2023-04-15T08:03:20;71.47;;;33.80;;
4074;SDS011;2052;53.522;9.806;2023-04-15T08:05:47;69.73;;;33.83;;
4074;SDS011;2052;53.522;9.806;2023-04-15T08:08:14;75.57;;;34.17;;
4074;SDS011;2052;53.522;9.806;2023-04-15T08:10:40;76.60;;;35.70;;
4074;SDS011;2052;53.522;9.806;2023-04-15T08:13:07;76.27;;;38.50;;
4074;SDS011;2052;53.522;9.806;2023-04-15T08:15:34;76.67;;;36.30;;
4074;SDS011;2052;53.522;9.806;2023-04-15T08:18:02;83.80;;;34.07;;
4074;SDS011;2052;53.522;9.806;2023-04-15T08:20:28;78.07;;;37.00;;
4074;SDS011;2052;53.522;9.806;2023-04-15T08:22:55;84.37;;;38.60;;
4074;SDS011;2052;53.522;9.806;2023-04-15T08:25:22;75.43;;;33.87;;
4074;SDS011;2052;53.522;9.806;2023-04-15T08:27:48;79.00;;;37.07;;
4074;SDS011;2052;53.522;9.806;2023-04-15T08:30:15;77.60;;;37.07;;
4074;SDS011;2052;53.522;9.806;2023-04-15T08:32:44;78.23;;;36.73;;
4074;SDS011;2052;53.522;9.806;2023-04-15T08:35:12;83.13;;;37.53;;
4074;SDS011;2052;53.522;9.806;2023-04-15T08:37:39;78.33;;;38.50;;
4074;SDS011;2052;53.522;9.806;2023-04-15T08:40:07;88.77;;;36.87;;
4074;SDS011;2052;53.522;9.806;2023-04-15T08:42:36;83.40;;;38.77;;
4074;SDS011;2052;53.522;9.806;2023-04-15T08:45:03;77.33;;;37.67;;
4074;SDS011;2052;53.522;9.806;2023-04-15T08:47:30;88.80;;;39.60;;
4074;SDS011;2052;53.522;9.806;2023-04-15T08:49:58;94.37;;;37.33;;
4074;SDS011;2052;53.522;9.806;2023-04-15T08:52:29;82.30;;;38.40;;
4074;SDS011;2052;53.522;9.806;2023-04-15T08:54:56;77.97;;;36.50;;
4074;SDS011;2052;53.522;9.806;2023-04-15T08:57:24;85.33;;;38.40;;
4074;SDS011;2052;53.522;9.806;2023-04-15T08:59:51;89.33;;;40.60;;
4074;SDS011;2052;53.522;9.806;2023-04-15T09:02:19;83.80;;;38.60;;
4074;SDS011;2052;53.522;9.806;2023-04-15T09:04:46;81.90;;;37.30;;
4074;SDS011;2052;53.522;9.806;2023-04-15T09:07:12;76.40;;;37.30;;
4074;SDS011;2052;53.522;9.806;2023-04-15T09:09:40;77.37;;;36.40;;
4074;SDS011;2052;53.522;9.806;2023-04-15T09:12:07;72.70;;;37.17;;
4074;SDS011;2052;53.522;9.806;2023-04-15T09:14:34;81.07;;;37.00;;
4074;SDS011;2052;53.522;9.806;2023-04-15T09:17:02;86.37;;;39.90;;
4074;SDS011;2052;53.522;9.806;2023-04-15T09:19:30;76.90;;;37.37;;
4074;SDS011;2052;53.522;9.806;2023-04-15T09:21:57;73.00;;;34.37;;
4074;SDS011;2052;53.522;9.806;2023-04-15T09:24:27;79.40;;;39.67;;
4074;SDS011;2052;53.522;9.806;2023-04-15T09:27:02;76.03;;;36.77;;
4074;SDS011;2052;53.522;9.806;2023-04-15T09:29:30;66.10;;;32.40;;
4074;SDS011;2052;53.522;9.806;2023-04-15T09:31:57;74.23;;;34.07;;
4074;SDS011;2052;53.522;9.806;2023-04-15T09:34:35;66.80;;;32.07;;
4074;SDS011;2052;53.522;9.806;2023-04-15T09:37:02;78.63;;;34.97;;
4074;SDS011;2052;53.522;9.806;2023-04-15T09:39:37;68.50;;;33.07;;
4074;SDS011;2052;53.522;9.806;2023-04-15T09:42:12;72.90;;;33.07;;
4074;SDS011;2052;53.522;9.806;2023-04-15T09:44:39;65.63;;;33.90;;
4074;SDS011;2052;53.522;9.806;2023-04-15T09:47:05;72.80;;;34.57;;
4074;SDS011;2052;53.522;9.806;2023-04-15T09:49:33;70.43;;;32.03;;
4074;SDS011;2052;53.522;9.806;2023-04-15T09:52:00;61.30;;;31.27;;
4074;SDS011;2052;53.522;9.806;2023-04-15T09:54:31;60.27;;;32.60;;
4074;SDS011;2052;53.522;9.806;2023-04-15T09:57:03;69.80;;;33.30;;
4074;SDS011;2052;53.522;9.806;2023-04-15T09:59:32;73.40;;;32.17;;
4074;SDS011;2052;53.522;9.806;2023-04-15T10:01:59;67.50;;;34.03;;
4074;SDS011;2052;53.522;9.806;2023-04-15T10:04:28;71.67;;;33.13;;
4074;SDS011;2052;53.522;9.806;2023-04-15T10:06:55;65.10;;;33.03;;
4074;SDS011;2052;53.522;9.806;2023-04-15T10:09:22;62.03;;;33.10;;
4074;SDS011;2052;53.522;9.806;2023-04-15T10:11:49;59.47;;;31.83;;
4074;SDS011;2052;53.522;9.806;2023-04-15T10:14:15;62.07;;;31.73;;
4074;SDS011;2052;53.522;9.806;2023-04-15T10:16:44;51.40;;;30.27;;
4074;SDS011;2052;53.522;9.806;2023-04-15T10:19:13;57.13;;;30.33;;
4074;SDS011;2052;53.522;9.806;2023-04-15T10:21:41;60.60;;;32.00;;
4074;SDS011;2052;53.522;9.806;2023-04-15T10:24:09;61.67;;;30.57;;
4074;SDS011;2052;53.522;9.806;2023-04-15T10:26:36;60.80;;;29.90;;
4074;SDS011;2052;53.522;9.806;2023-04-15T10:29:03;59.23;;;31.43;;
4074;SDS011;2052;53.522;9.806;2023-04-15T10:31:30;58.77;;;30.87;;
4074;SDS011;2052;53.522;9.806;2023-04-15T10:33:58;53.20;;;30.73;;
4074;SDS011;2052;53.522;9.806;2023-04-15T10:36:29;56.70;;;30.67;;
4074;SDS011;2052;53.522;9.806;2023-04-15T10:38:55;56.50;;;31.10;;
4074;SDS011;2052;53.522;9.806;2023-04-15T10:41:22;50.20;;;26.77;;
4074;SDS011;2052;53.522;9.806;2023-04-15T10:43:52;51.87;;;29.20;;
4074;SDS011;2052;53.522;9.806;2023-04-15T10:46:20;49.50;;;28.80;;
4074;SDS011;2052;53.522;9.806;2023-04-15T10:48:48;46.60;;;26.93;;
4074;SDS011;2052;53.522;9.806;2023-04-15T10:51:16;52.80;;;27.90;;
4074;SDS011;2052;53.522;9.806;2023-04-15T10:53:55;47.50;;;27.20;;
4074;SDS011;2052;53.522;9.806;2023-04-15T10:56:22;48.83;;;27.70;;
4074;SDS011;2052;53.522;9.806;2023-04-15T10:58:48;52.63;;;28.87;;
4074;SDS011;2052;53.522;9.806;2023-04-15T11:01:15;55.57;;;28.00;;
4074;SDS011;2052;53.522;9.806;2023-04-15T11:03:42;48.27;;;27.90;;
4074;SDS011;2052;53.522;9.806;2023-04-15T11:06:09;45.57;;;27.40;;
4074;SDS011;2052;53.522;9.806;2023-04-15T11:08:53;49.50;;;29.50;;
4074;SDS011;2052;53.522;9.806;2023-04-15T11:11:22;45.10;;;25.47;;
4074;SDS011;2052;53.522;9.806;2023-04-15T11:13:49;44.73;;;25.53;;
4074;SDS011;2052;53.522;9.806;2023-04-15T11:16:18;46.30;;;26.87;;
4074;SDS011;2052;53.522;9.806;2023-04-15T11:18:52;48.10;;;27.70;;
4074;SDS011;2052;53.522;9.806;2023-04-15T11:21:19;40.90;;;24.63;;
4074;SDS011;2052;53.522;9.806;2023-04-15T11:23:50;44.23;;;24.50;;
4074;SDS011;2052;53.522;9.806;2023-04-15T11:26:18;41.00;;;24.30;;
4074;SDS011;2052;53.522;9.806;2023-04-15T11:28:44;37.80;;;22.83;;
4074;SDS011;2052;53.522;9.806;2023-04-15T11:31:12;45.67;;;25.17;;
4074;SDS011;2052;53.522;9.806;2023-04-15T11:33:45;41.50;;;24.77;;
4074;SDS011;2052;53.522;9.806;2023-04-15T11:36:13;36.60;;;23.47;;
4074;SDS011;2052;53.522;9.806;2023-04-15T11:38:43;33.60;;;23.30;;
4074;SDS011;2052;53.522;9.806;2023-04-15T11:41:11;34.03;;;21.90;;
4074;SDS011;2052;53.522;9.806;2023-04-15T11:43:39;34.13;;;23.47;;
4074;SDS011;2052;53.522;9.806;2023-04-15T11:46:06;29.77;;;19.50;;
4074;SDS011;2052;53.522;9.806;2023-04-15T11:48:33;28.63;;;18.83;;
4074;SDS011;2052;53.522;9.806;2023-04-15T11:51:01;26.20;;;16.70;;
4074;SDS011;2052;53.522;9.806;2023-04-15T11:53:35;24.70;;;16.47;;
4074;SDS011;2052;53.522;9.806;2023-04-15T11:56:03;21.63;;;15.57;;
4074;SDS011;2052;53.522;9.806;2023-04-15T11:58:32;24.00;;;13.97;;
4074;SDS011;2052;53.522;9.806;2023-04-15T12:01:01;23.10;;;15.17;;
4074;SDS011;2052;53.522;9.806;2023-04-15T12:03:28;22.57;;;14.77;;
4074;SDS011;2052;53.522;9.806;2023-04-15T12:08:56;17.10;;;13.10;;
4074;SDS011;2052;53.522;9.806;2023-04-15T12:11:32;21.00;;;12.77;;
4074;SDS011;2052;53.522;9.806;2023-04-15T12:14:05;20.80;;;13.60;;
4074;SDS011;2052;53.522;9.806;2023-04-15T12:16:35;21.70;;;13.77;;
4074;SDS011;2052;53.522;9.806;2023-04-15T12:19:06;18.67;;;12.83;;
4074;SDS011;2052;53.522;9.806;2023-04-15T12:21:36;23.70;;;13.57;;
4074;SDS011;2052;53.522;9.806;2023-04-15T12:24:06;17.17;;;12.07;;
4074;SDS011;2052;53.522;9.806;2023-04-15T12:26:34;15.17;;;11.70;;
4074;SDS011;2052;53.522;9.806;2023-04-15T12:29:02;18.33;;;12.50;;
4074;SDS011;2052;53.522;9.806;2023-04-15T12:31:29;16.53;;;11.90;;
4074;SDS011;2052;53.522;9.806;2023-04-15T12:33:57;22.90;;;13.87;;
4074;SDS011;2052;53.522;9.806;2023-04-15T12:36:24;16.53;;;11.60;;
4074;SDS011;2052;53.522;9.806;2023-04-15T12:38:51;15.73;;;12.40;;
4074;SDS011;2052;53.522;9.806;2023-04-15T12:41:19;17.90;;;12.33;;
4074;SDS011;2052;53.522;9.806;2023-04-15T12:43:46;19.73;;;13.37;;
4074;SDS011;2052;53.522;9.806;2023-04-15T12:46:13;17.00;;;13.50;;
4074;SDS011;2052;53.522;9.806;2023-04-15T12:48:40;19.23;;;13.10;;
4074;SDS011;2052;53.522;9.806;2023-04-15T12:51:07;16.77;;;12.50;;
4074;SDS011;2052;53.522;9.806;2023-04-15T12:53:34;18.17;;;12.10;;
4074;SDS011;2052;53.522;9.806;2023-04-15T12:56:01;16.57;;;12.13;;
4074;SDS011;2052;53.522;9.806;2023-04-15T12:58:27;14.50;;;11.57;;
4074;SDS011;2052;53.522;9.806;2023-04-15T13:00:54;18.10;;;11.77;;
4074;SDS011;2052;53.522;9.806;2023-04-15T13:03:21;19.90;;;12.40;;
4074;SDS011;2052;53.522;9.806;2023-04-15T13:05:47;15.13;;;10.93;;
4074;SDS011;2052;53.522;9.806;2023-04-15T13:08:15;14.77;;;11.50;;
4074;SDS011;2052;53.522;9.806;2023-04-15T13:10:42;17.33;;;11.83;;
4074;SDS011;2052;53.522;9.806;2023-04-15T13:13:08;18.50;;;11.60;;
4074;SDS011;2052;53.522;9.806;2023-04-15T13:15:35;14.90;;;11.70;;
4074;SDS011;2052;53.522;9.806;2023-04-15T13:18:02;17.20;;;11.40;;
4074;SDS011;2052;53.522;9.806;2023-04-15T13:20:30;17.80;;;12.90;;
4074;SDS011;2052;53.522;9.806;2023-04-15T13:22:57;14.30;;;11.13;;
4074;SDS011;2052;53.522;9.806;2023-04-15T13:25:24;16.70;;;11.90;;
4074;SDS011;2052;53.522;9.806;2023-04-15T13:27:52;17.33;;;13.50;;
4074;SDS011;2052;53.522;9.806;2023-04-15T13:30:18;21.23;;;13.53;;
4074;SDS011;2052;53.522;9.806;2023-04-15T13:32:45;18.90;;;14.03;;
4074;SDS011;2052;53.522;9.806;2023-04-15T13:35:12;17.17;;;13.37;;
4074;SDS011;2052;53.522;9.806;2023-04-15T13:37:38;18.77;;;12.70;;
4074;SDS011;2052;53.522;9.806;2023-04-15T13:40:06;19.23;;;13.00;;
4074;SDS011;2052;53.522;9.806;2023-04-15T13:42:34;19.30;;;12.40;;
4074;SDS011;2052;53.522;9.806;2023-04-15T13:45:01;16.60;;;12.23;;
4074;SDS011;2052;53.522;9.806;2023-04-15T13:47:28;16.83;;;12.27;;
4074;SDS011;2052;53.522;9.806;2023-04-15T13:49:54;20.00;;;12.47;;
4074;SDS011;2052;53.522;9.806;2023-04-15T13:52:21;16.53;;;12.90;;
4074;SDS011;2052;53.522;9.806;2023-04-15T13:54:48;15.30;;;11.77;;
4074;SDS011;2052;53.522;9.806;2023-04-15T13:57:14;17.80;;;13.30;;
4074;SDS011;2052;53.522;9.806;2023-04-15T13:59:42;16.43;;;12.07;;
4074;SDS011;2052;53.522;9.806;2023-04-15T14:02:09;15.30;;;11.93;;
4074;SDS011;2052;53.522;9.806;2023-04-15T14:04:36;18.40;;;12.50;;
4074;SDS011;2052;53.522;9.806;2023-04-15T14:07:02;15.50;;;12.57;;
4074;SDS011;2052;53.522;9.806;2023-04-15T14:09:29;22.87;;;12.00;;
4074;SDS011;2052;53.522;9.806;2023-04-15T14:11:56;16.40;;;13.00;;
4074;SDS011;2052;53.522;9.806;2023-04-15T14:14:24;20.90;;;13.40;;
4074;SDS011;2052;53.522;9.806;2023-04-15T14:16:51;16.90;;;11.10;;
4074;SDS011;2052;53.522;9.806;2023-04-15T14:19:18;16.67;;;11.13;;
4074;SDS011;2052;53.522;9.806;2023-04-15T14:21:44;16.67;;;11.57;;
4074;SDS011;2052;53.522;9.806;2023-04-15T14:24:11;15.77;;;11.10;;
4074;SDS011;2052;53.522;9.806;2023-04-15T14:26:38;17.37;;;11.10;;
4074;SDS011;2052;53.522;9.806;2023-04-15T14:29:04;12.87;;;9.63;;
4074;SDS011;2052;53.522;9.806;2023-04-15T14:31:31;12.80;;;10.10;;
4074;SDS011;2052;53.522;9.806;2023-04-15T14:33:59;13.37;;;9.70;;
4074;SDS011;2052;53.522;9.806;2023-04-15T14:36:26;12.67;;;9.50;;
4074;SDS011;2052;53.522;9.806;2023-04-15T14:38:52;13.60;;;10.00;;
4074;SDS011;2052;53.522;9.806;2023-04-15T14:41:19;13.80;;;10.33;;
4074;SDS011;2052;53.522;9.806;2023-04-15T14:43:46;17.93;;;10.20;;
4074;SDS011;2052;53.522;9.806;2023-04-15T14:46:13;14.10;;;9.40;;
4074;SDS011;2052;53.522;9.806;2023-04-15T14:48:39;12.13;;;9.60;;
4074;SDS011;2052;53.522;9.806;2023-04-15T14:51:09;13.23;;;9.50;;
4074;SDS011;2052;53.522;9.806;2023-04-15T14:53:35;14.90;;;11.00;;